createdAt,value
2018-01-06T00:02:18.595Z,96546.78
2018-01-06T00:04:49.530Z,96541.78
2018-01-06T00:07:20.515Z,96539.68
2018-01-06T00:09:51.434Z,96538.75
2018-01-06T00:12:22.428Z,96546.42
2018-01-06T00:14:53.375Z,96540.13
2018-01-06T00:17:24.338Z,96529.07
2018-01-06T00:19:55.270Z,96534.47
2018-01-06T00:22:26.261Z,96532.92
2018-01-06T00:24:57.228Z,96537.91
2018-01-06T00:27:28.155Z,96545.55
2018-01-06T00:29:59.136Z,96537.52
2018-01-06T00:32:30.115Z,96530.81
2018-01-06T00:35:01.081Z,96536.86
2018-01-06T00:37:32.054Z,96546.08
2018-01-06T00:40:03.036Z,96548.84
2018-01-06T00:42:33.925Z,96552.92
2018-01-06T00:45:04.849Z,96550.13
2018-01-06T00:47:35.790Z,96550.10
2018-01-06T00:50:06.787Z,96549.84
2018-01-06T00:52:37.718Z,96550.20
2018-01-06T00:55:08.704Z,96547.18
2018-01-06T00:57:39.723Z,96549.95
2018-01-06T01:00:10.738Z,96541.26
2018-01-06T01:02:41.647Z,96549.05
2018-01-06T01:05:12.564Z,96553.00
2018-01-06T01:07:43.492Z,96558.13
2018-01-06T01:10:14.460Z,96569.19
2018-01-06T01:12:45.452Z,96566.66
2018-01-06T01:15:16.446Z,96568.22
2018-01-06T01:17:47.410Z,96568.34
2018-01-06T01:20:18.359Z,96572.69
2018-01-06T01:22:49.335Z,96575.45
2018-01-06T01:25:20.310Z,96572.16
2018-01-06T01:27:51.256Z,96572.69
2018-01-06T01:30:22.211Z,96575.55
2018-01-06T01:32:53.181Z,96572.56
2018-01-06T01:35:24.118Z,96578.91
2018-01-06T01:37:55.073Z,96584.72
2018-01-06T01:40:26.011Z,96578.69
2018-01-06T01:42:56.950Z,96580.31
2018-01-06T01:45:27.859Z,96581.73
2018-01-06T01:47:58.796Z,96579.66
2018-01-06T01:50:29.805Z,96592.13
2018-01-06T01:53:00.704Z,96595.42
2018-01-06T01:55:31.696Z,96594.50
2018-01-06T01:58:02.640Z,96599.25
2018-01-06T02:00:33.617Z,96602.94
2018-01-06T02:03:04.608Z,96597.95
2018-01-06T02:05:35.632Z,96602.29
2018-01-06T02:08:06.589Z,96593.22
2018-01-06T02:10:37.582Z,96595.06
2018-01-06T02:13:08.548Z,96599.41
2018-01-06T02:15:40.171Z,96597.14
2018-01-06T02:18:11.241Z,96592.15
2018-01-06T02:20:42.207Z,96588.08
2018-01-06T02:23:13.192Z,96585.42
2018-01-06T02:25:44.128Z,96589.34
2018-01-06T02:28:15.112Z,96580.80
2018-01-06T02:30:46.064Z,96585.39
2018-01-06T02:33:17.016Z,96599.11
2018-01-06T02:35:47.990Z,96607.80
2018-01-06T02:38:18.944Z,96600.58
2018-01-06T02:40:49.915Z,96601.90
2018-01-06T02:43:20.860Z,96602.81
2018-01-06T02:45:51.796Z,96598.61
2018-01-06T02:48:22.739Z,96597.95
2018-01-06T02:50:53.713Z,96589.55
2018-01-06T02:53:24.648Z,96589.28
2018-01-06T02:55:55.602Z,96589.69
2018-01-06T02:58:26.545Z,96582.03
2018-01-06T03:00:57.506Z,96579.38
2018-01-06T03:03:35.629Z,96582.02
2018-01-06T03:06:06.601Z,96587.03
2018-01-06T03:08:37.580Z,96575.73
2018-01-06T03:11:08.499Z,96575.59
2018-01-06T03:13:39.474Z,96580.09
2018-01-06T03:16:10.434Z,96580.86
2018-01-06T03:18:41.428Z,96579.02
2018-01-06T03:21:12.379Z,96587.29
2018-01-06T03:23:43.341Z,96588.72
2018-01-06T03:26:14.291Z,96588.06
2018-01-06T03:28:45.222Z,96586.75
2018-01-06T03:31:16.206Z,96585.70
2018-01-06T03:33:47.135Z,96586.07
2018-01-06T03:36:18.091Z,96582.92
2018-01-06T03:38:49.068Z,96587.14
2018-01-06T03:41:20.038Z,96589.52
2018-01-06T03:43:51.040Z,96592.43
2018-01-06T03:46:21.959Z,96591.78
2018-01-06T03:48:52.897Z,96587.59
2018-01-06T03:51:23.830Z,96599.30
2018-01-06T03:53:54.936Z,96597.58
2018-01-06T03:56:25.926Z,96598.25
2018-01-06T03:58:56.946Z,96600.09
2018-01-06T04:01:27.987Z,96601.41
2018-01-06T04:03:58.944Z,96595.76
2018-01-06T04:06:29.868Z,96595.61
2018-01-06T04:09:00.815Z,96594.54
2018-01-06T04:11:31.811Z,96594.94
2018-01-06T04:14:02.729Z,96580.84
2018-01-06T04:16:33.708Z,96579.14
2018-01-06T04:19:04.664Z,96587.17
2018-01-06T04:21:35.652Z,96595.06
2018-01-06T04:24:06.607Z,96595.56
2018-01-06T04:26:37.614Z,96588.75
2018-01-06T04:29:08.568Z,96588.36
2018-01-06T04:31:39.517Z,96592.84
2018-01-06T04:34:10.508Z,96593.09
2018-01-06T04:36:41.436Z,96591.24
2018-01-06T04:39:12.412Z,96582.41
2018-01-06T04:41:43.325Z,96586.86
2018-01-06T04:44:14.284Z,96583.45
2018-01-06T04:46:45.223Z,96585.16
2018-01-06T04:49:16.212Z,96587.39
2018-01-06T04:51:54.204Z,96584.77
2018-01-06T04:54:25.193Z,96576.47
2018-01-06T04:56:56.184Z,96577.92
2018-01-06T04:59:27.161Z,96581.07
2018-01-06T05:01:58.146Z,96579.77
2018-01-06T05:04:29.082Z,96588.31
2018-01-06T05:07:00.021Z,96598.31
2018-01-06T05:09:30.946Z,96587.02
2018-01-06T05:12:01.894Z,96589.52
2018-01-06T05:14:32.820Z,96586.09
2018-01-06T05:17:03.749Z,96576.09
2018-01-06T05:19:34.700Z,96572.81
2018-01-06T05:22:05.633Z,96566.36
2018-01-06T05:24:36.582Z,96570.73
2018-01-06T05:27:07.512Z,96579.41
2018-01-06T05:29:38.483Z,96587.59
2018-01-06T05:32:09.416Z,96578.78
2018-01-06T05:34:40.420Z,96581.95
2018-01-06T05:37:11.414Z,96584.72
2018-01-06T05:39:42.375Z,96583.41
2018-01-06T05:42:13.325Z,96596.16
2018-01-06T05:44:44.369Z,96591.27
2018-01-06T05:47:15.365Z,96589.05
2018-01-06T05:49:46.328Z,96592.05
2018-01-06T05:52:17.291Z,96594.28
2018-01-06T05:54:48.274Z,96597.55
2018-01-06T05:57:19.223Z,96602.81
2018-01-06T05:59:50.120Z,96613.61
2018-01-06T06:02:21.089Z,96608.59
2018-01-06T06:04:52.042Z,96602.54
2018-01-06T06:07:22.945Z,96607.00
2018-01-06T06:09:53.896Z,96607.16
2018-01-06T06:12:24.874Z,96604.67
2018-01-06T06:14:55.944Z,96613.48
2018-01-06T06:17:26.882Z,96604.53
2018-01-06T06:19:57.840Z,96604.80
2018-01-06T06:22:28.811Z,96599.66
2018-01-06T06:24:59.791Z,96592.58
2018-01-06T06:27:30.737Z,96594.92
2018-01-06T06:30:01.749Z,96601.50
2018-01-06T06:32:32.717Z,96603.62
2018-01-06T06:35:03.635Z,96604.27
2018-01-06T06:37:34.610Z,96599.02
2018-01-06T06:40:05.615Z,96597.57
2018-01-06T06:42:36.595Z,96591.23
2018-01-06T06:45:07.549Z,96589.64
2018-01-06T06:47:38.524Z,96591.86
2018-01-06T06:50:09.444Z,96580.83
2018-01-06T06:52:40.427Z,96578.74
2018-01-06T06:55:11.377Z,96582.55
2018-01-06T06:57:42.422Z,96579.56
2018-01-06T07:00:13.414Z,96584.58
2018-01-06T07:02:44.361Z,96599.59
2018-01-06T07:05:15.273Z,96602.86
2018-01-06T07:07:46.218Z,96606.79
2018-01-06T07:10:17.191Z,96614.03
2018-01-06T07:12:48.334Z,96611.25
2018-01-06T07:15:19.494Z,96616.25
2018-01-06T07:17:50.473Z,96622.30
2018-01-06T07:20:21.460Z,96618.44
2018-01-06T07:22:52.369Z,96622.38
2018-01-06T07:25:23.305Z,96619.31
2018-01-06T07:27:54.218Z,96614.17
2018-01-06T07:30:25.208Z,96611.08
2018-01-06T07:32:56.159Z,96608.20
2018-01-06T07:35:27.104Z,96610.05
2018-01-06T07:37:58.082Z,96615.17
2018-01-06T07:40:29.064Z,96618.45
2018-01-06T07:43:00.017Z,96619.14
2018-01-06T07:45:30.989Z,96615.35
2018-01-06T07:48:01.988Z,96624.43
2018-01-06T07:50:32.950Z,96624.16
2018-01-06T07:53:03.879Z,96616.91
2018-01-06T07:55:34.826Z,96615.17
2018-01-06T07:58:05.787Z,96616.83
2018-01-06T08:00:36.765Z,96611.55
2018-01-06T08:03:07.693Z,96618.63
2018-01-06T08:05:38.616Z,96615.60
2018-01-06T08:08:09.568Z,96614.55
2018-01-06T08:10:40.513Z,96614.58
2018-01-06T08:13:11.448Z,96615.09
2018-01-06T08:15:42.398Z,96614.70
2018-01-06T08:18:14.206Z,96626.25
2018-01-06T08:20:45.231Z,96617.25
2018-01-06T08:23:16.214Z,96621.83
2018-01-06T08:25:47.192Z,96620.08
2018-01-06T08:28:18.177Z,96622.22
2018-01-06T08:30:49.213Z,96619.94
2018-01-06T08:33:20.100Z,96617.83
2018-01-06T08:35:51.109Z,96624.08
2018-01-06T08:38:29.100Z,96629.27
2018-01-06T08:41:00.085Z,96631.33
2018-01-06T08:43:31.029Z,96632.34
2018-01-06T08:46:02.892Z,96629.38
2018-01-06T08:48:33.880Z,96635.37
2018-01-06T08:51:04.823Z,96634.86
2018-01-06T08:53:35.811Z,96635.72
2018-01-06T08:56:06.763Z,96629.92
2018-01-06T08:58:37.704Z,96638.67
2018-01-06T09:01:08.731Z,96640.65
2018-01-06T09:03:39.696Z,96647.25
2018-01-06T09:06:10.686Z,96646.38
2018-01-06T09:08:41.707Z,96639.91
2018-01-06T09:11:12.658Z,96643.34
2018-01-06T09:13:43.658Z,96634.20
2018-01-06T09:16:14.634Z,96637.59
2018-01-06T09:18:45.608Z,96643.08
2018-01-06T09:21:16.571Z,96628.83
2018-01-06T09:23:47.583Z,96633.78
2018-01-06T09:26:18.530Z,96635.08
2018-01-06T09:28:49.509Z,96635.62
2018-01-06T09:31:20.458Z,96634.66
2018-01-06T09:33:51.492Z,96630.47
2018-01-06T09:36:22.439Z,96628.25
2018-01-06T09:38:53.463Z,96620.94
2018-01-06T09:41:24.377Z,96617.39
2018-01-06T09:43:56.106Z,96625.94
2018-01-06T09:46:27.088Z,96613.98
2018-01-06T09:48:58.120Z,96609.05
2018-01-06T09:51:29.098Z,96606.95
2018-01-06T09:54:00.116Z,96611.16
2018-01-06T09:56:31.150Z,96606.92
2018-01-06T09:59:02.106Z,96600.05
2018-01-06T10:01:33.062Z,96605.77
2018-01-06T10:04:04.041Z,96602.36
2018-01-06T10:06:35.031Z,96601.25
2018-01-06T10:09:05.981Z,96594.92
2018-01-06T10:11:36.978Z,96589.48
2018-01-06T10:14:07.879Z,96594.81
2018-01-06T10:16:38.857Z,96599.84
2018-01-06T10:19:09.781Z,96594.05
2018-01-06T10:21:40.723Z,96588.72
2018-01-06T10:24:11.666Z,96590.34
2018-01-06T10:26:42.606Z,96591.41
2018-01-06T10:29:13.624Z,96590.95
2018-01-06T10:31:44.600Z,96593.13
2018-01-06T10:34:15.556Z,96588.48
2018-01-06T10:36:46.508Z,96583.95
2018-01-06T10:39:17.505Z,96583.72
2018-01-06T10:41:48.476Z,96579.97
2018-01-06T10:44:19.457Z,96573.83
2018-01-06T10:46:50.412Z,96574.38
2018-01-06T10:49:21.341Z,96577.83
2018-01-06T10:51:52.320Z,96576.52
2018-01-06T10:54:23.305Z,96571.70
2018-01-06T10:56:54.315Z,96573.05
2018-01-06T10:59:25.292Z,96574.90
2018-01-06T11:02:02.388Z,96573.44
2018-01-06T11:04:33.370Z,96573.03
2018-01-06T11:07:04.470Z,96573.44
2018-01-06T11:09:35.537Z,96565.27
2018-01-06T11:12:06.487Z,96567.47
2018-01-06T11:14:37.437Z,96564.78
2018-01-06T11:17:08.398Z,96574.86
2018-01-06T11:19:39.479Z,96579.17
2018-01-06T11:22:10.760Z,96574.48
2018-01-06T11:24:41.700Z,96575.67
2018-01-06T11:27:12.674Z,96570.55
2018-01-06T11:29:43.616Z,96567.25
2018-01-06T11:32:14.580Z,96570.64
2018-01-06T11:34:45.542Z,96561.38
2018-01-06T11:37:16.494Z,96563.36
2018-01-06T11:39:47.503Z,96567.20
2018-01-06T11:42:18.416Z,96565.02
2018-01-06T11:44:49.330Z,96569.45
2018-01-06T11:47:20.303Z,96568.05
2018-01-06T11:49:51.228Z,96566.91
2018-01-06T11:52:22.222Z,96570.97
2018-01-06T11:54:53.201Z,96562.06
2018-01-06T11:57:24.200Z,96562.87
2018-01-06T11:59:55.206Z,96560.79
2018-01-06T12:02:26.158Z,96563.92
2018-01-06T12:04:57.118Z,96559.11
2018-01-06T12:07:28.122Z,96554.89
2018-01-06T12:09:59.071Z,96555.95
2018-01-06T12:12:30.017Z,96553.30
2018-01-06T12:15:00.986Z,96555.19
2018-01-06T12:17:31.942Z,96561.17
2018-01-06T12:20:02.906Z,96563.61
2018-01-06T12:22:33.906Z,96570.52
2018-01-06T12:25:04.878Z,96560.62
2018-01-06T12:27:35.826Z,96564.35
2018-01-06T12:30:06.834Z,96563.31
2018-01-06T12:32:37.834Z,96563.11
2018-01-06T12:35:08.779Z,96566.03
2018-01-06T12:37:39.750Z,96557.55
2018-01-06T12:40:10.739Z,96549.69
2018-01-06T12:42:41.752Z,96555.48
2018-01-06T12:45:12.772Z,96558.28
2018-01-06T12:47:43.735Z,96558.22
2018-01-06T12:50:14.730Z,96558.05
2018-01-06T12:52:45.744Z,96554.74
2018-01-06T12:55:16.778Z,96550.48
2018-01-06T12:57:47.712Z,96553.66
2018-01-06T13:00:18.757Z,96556.66
2018-01-06T13:02:49.699Z,96561.92
2018-01-06T13:05:20.710Z,96560.80
2018-01-06T13:07:51.671Z,96564.16
2018-01-06T13:10:22.614Z,96559.59
2018-01-06T13:12:53.593Z,96563.33
2018-01-06T13:15:24.546Z,96559.80
2018-01-06T13:17:55.464Z,96565.13
2018-01-06T13:20:26.486Z,96566.34
2018-01-06T13:22:57.524Z,96556.22
2018-01-06T13:25:28.563Z,96562.39
2018-01-06T13:27:59.525Z,96566.86
2018-01-06T13:30:30.483Z,96577.80
2018-01-06T13:33:01.448Z,96587.35
2018-01-06T13:35:32.447Z,96590.83
2018-01-06T13:38:04.254Z,96583.78
2018-01-06T13:40:35.237Z,96585.97
2018-01-06T13:43:06.224Z,96594.45
2018-01-06T13:45:37.194Z,96604.03
2018-01-06T13:48:08.160Z,96612.27
2018-01-06T13:50:39.173Z,96611.73
2018-01-06T13:53:10.124Z,96613.41
2018-01-06T13:55:41.126Z,96618.60
2018-01-06T13:58:12.072Z,96619.92
2018-01-06T14:00:43.028Z,96614.21
2018-01-06T14:03:13.967Z,96621.07
2018-01-06T14:05:44.971Z,96620.88
2018-01-06T14:08:15.917Z,96630.80
2018-01-06T14:10:46.885Z,96636.29
2018-01-06T14:13:17.830Z,96638.28
2018-01-06T14:15:48.899Z,96638.99
2018-01-06T14:18:19.925Z,96646.67
2018-01-06T14:20:50.916Z,96647.84
2018-01-06T14:23:21.905Z,96645.33
2018-01-06T14:25:55.458Z,96645.62
2018-01-06T14:28:26.498Z,96649.45
2018-01-06T14:30:57.438Z,96650.48
2018-01-06T14:33:28.403Z,96649.84
2018-01-06T14:35:59.338Z,96654.63
2018-01-06T14:38:30.303Z,96656.56
2018-01-06T14:41:01.242Z,96652.87
2018-01-06T14:43:32.250Z,96657.51
2018-01-06T14:46:03.213Z,96658.03
2018-01-06T14:48:34.223Z,96665.63
2018-01-06T14:51:05.208Z,96673.95
2018-01-06T14:53:36.176Z,96673.51
2018-01-06T14:56:07.146Z,96672.44
2018-01-06T14:58:38.135Z,96666.98
2018-01-06T15:01:09.139Z,96670.94
2018-01-06T15:03:40.168Z,96673.38
2018-01-06T15:06:11.159Z,96674.66
2018-01-06T15:08:42.073Z,96664.90
2018-01-06T15:11:13.024Z,96667.59
2018-01-06T15:13:43.985Z,96677.08
2018-01-06T15:16:15.025Z,96680.16
2018-01-06T15:18:45.982Z,96678.13
2018-01-06T15:21:16.944Z,96675.94
2018-01-06T15:23:48.018Z,96682.73
2018-01-06T15:26:18.946Z,96680.56
2018-01-06T15:28:49.923Z,96691.30
2018-01-06T15:31:20.842Z,96688.42
2018-01-06T15:33:51.837Z,96702.44
2018-01-06T15:36:22.805Z,96704.56
2018-01-06T15:38:53.818Z,96710.34
2018-01-06T15:41:24.793Z,96716.42
2018-01-06T15:43:55.795Z,96710.77
2018-01-06T15:46:26.803Z,96721.05
2018-01-06T15:48:57.794Z,96722.09
2018-01-06T15:51:28.807Z,96734.86
2018-01-06T15:53:59.730Z,96732.37
2018-01-06T15:56:31.450Z,96734.11
2018-01-06T15:59:02.421Z,96735.81
2018-01-06T16:01:33.413Z,96735.42
2018-01-06T16:04:04.352Z,96742.27
2018-01-06T16:06:35.354Z,96740.05
2018-01-06T16:09:06.293Z,96742.94
2018-01-06T16:11:37.262Z,96753.19
2018-01-06T16:14:08.214Z,96754.11
2018-01-06T16:16:41.406Z,96759.88
2018-01-06T16:19:12.391Z,96761.04
2018-01-06T16:21:43.356Z,96763.80
2018-01-06T16:24:14.328Z,96761.54
2018-01-06T16:26:45.313Z,96762.18
2018-01-06T16:29:16.308Z,96760.20
2018-01-06T16:31:47.257Z,96762.68
2018-01-06T16:34:18.242Z,96765.28
2018-01-06T16:36:49.216Z,96764.18
2018-01-06T16:39:20.212Z,96774.51
2018-01-06T16:41:51.169Z,96771.57
2018-01-06T16:44:22.207Z,96772.03
2018-01-06T16:46:53.189Z,96776.72
2018-01-06T16:49:24.150Z,96778.78
2018-01-06T16:51:55.048Z,96784.28
2018-01-06T16:54:26.054Z,96785.31
2018-01-06T16:56:57.071Z,96784.25
2018-01-06T16:59:28.044Z,96786.61
2018-01-06T17:01:59.005Z,96794.48
2018-01-06T17:04:29.996Z,96794.33
2018-01-06T17:07:00.989Z,96803.27
2018-01-06T17:09:31.966Z,96807.33
2018-01-06T17:12:02.944Z,96805.34
2018-01-06T17:14:33.914Z,96806.11
2018-01-06T17:17:04.853Z,96801.08
2018-01-06T17:19:35.807Z,96811.06
2018-01-06T17:22:06.757Z,96814.84
2018-01-06T17:24:37.741Z,96819.15
2018-01-06T17:27:08.778Z,96830.56
2018-01-06T17:29:39.789Z,96825.03
2018-01-06T17:32:10.836Z,96828.55
2018-01-06T17:34:41.762Z,96834.31
2018-01-06T17:37:12.774Z,96841.66
2018-01-06T17:39:43.917Z,96840.16
2018-01-06T17:42:14.903Z,96839.48
2018-01-06T17:44:45.828Z,96843.11
2018-01-06T17:47:16.831Z,96842.59
2018-01-06T17:49:47.786Z,96848.64
2018-01-06T17:52:18.754Z,96846.97
2018-01-06T17:54:49.735Z,96848.31
2018-01-06T17:57:20.757Z,96848.34
2018-01-06T17:59:51.726Z,96852.48
2018-01-06T18:02:22.781Z,96857.52
2018-01-06T18:04:53.736Z,96857.70
2018-01-06T18:07:24.726Z,96859.44
2018-01-06T18:09:55.650Z,96865.55
2018-01-06T18:12:26.666Z,96860.48
2018-01-06T18:14:57.635Z,96868.02
2018-01-06T18:17:28.617Z,96876.10
2018-01-06T18:19:59.737Z,96874.39
2018-01-06T18:22:30.694Z,96867.36
2018-01-06T18:25:01.822Z,96865.55
2018-01-06T18:27:32.878Z,96871.57
2018-01-06T18:30:03.852Z,96873.38
2018-01-06T18:32:34.746Z,96882.57
2018-01-06T18:35:05.775Z,96880.27
2018-01-06T18:37:36.755Z,96882.19
2018-01-06T18:40:07.714Z,96884.42
2018-01-06T18:42:38.636Z,96893.06
2018-01-06T18:45:09.630Z,96888.02
2018-01-06T18:47:40.565Z,96895.64
2018-01-06T18:50:11.524Z,96893.03
2018-01-06T18:52:42.502Z,96895.91
2018-01-06T18:55:13.469Z,96893.96
2018-01-06T18:57:44.467Z,96896.38
2018-01-06T19:00:15.426Z,96901.70
2018-01-06T19:02:46.406Z,96908.61
2018-01-06T19:05:24.482Z,96908.92
2018-01-06T19:07:55.459Z,96912.11
2018-01-06T19:10:26.414Z,96917.20
2018-01-06T19:12:57.412Z,96915.95
2018-01-06T19:15:28.426Z,96911.81
2018-01-06T19:18:00.314Z,96916.81
2018-01-06T19:20:31.331Z,96920.34
2018-01-06T19:23:02.300Z,96919.96
2018-01-06T19:25:33.303Z,96927.02
2018-01-06T19:28:04.282Z,96934.47
2018-01-06T19:30:35.297Z,96936.45
2018-01-06T19:33:06.219Z,96938.78
2018-01-06T19:35:37.201Z,96943.64
2018-01-06T19:38:08.157Z,96942.30
2018-01-06T19:40:39.175Z,96940.95
2018-01-06T19:43:10.135Z,96938.35
2018-01-06T19:45:41.095Z,96935.76
2018-01-06T19:48:12.160Z,96938.75
2018-01-06T19:50:43.152Z,96943.33
2018-01-06T19:53:14.144Z,96943.21
2018-01-06T19:55:45.102Z,96951.37
2018-01-06T19:58:16.118Z,96951.97
2018-01-06T20:00:47.124Z,96952.36
2018-01-06T20:03:18.134Z,96955.74
2018-01-06T20:05:49.125Z,96966.36
2018-01-06T20:08:20.121Z,96965.33
2018-01-06T20:10:51.111Z,96964.13
2018-01-06T20:13:22.079Z,96968.12
2018-01-06T20:15:53.020Z,96971.62
2018-01-06T20:18:24.002Z,96974.59
2018-01-06T20:20:54.965Z,96976.44
2018-01-06T20:23:25.943Z,96985.34
2018-01-06T20:25:56.910Z,96994.73
2018-01-06T20:28:27.929Z,96998.73
2018-01-06T20:30:58.988Z,96996.70
2018-01-06T20:33:30.020Z,97003.58
2018-01-06T20:36:01.053Z,97003.86
2018-01-06T20:38:31.979Z,97007.59
2018-01-06T20:41:02.982Z,97001.72
2018-01-06T20:43:33.960Z,97003.33
2018-01-06T20:46:04.969Z,97000.11
2018-01-06T20:48:35.895Z,97002.23
2018-01-06T20:51:06.881Z,96997.42
2018-01-06T20:53:37.906Z,97001.27
2018-01-06T20:56:08.842Z,96999.29
2018-01-06T20:58:39.797Z,96997.68
2018-01-06T21:01:10.855Z,96990.80
2018-01-06T21:03:41.771Z,96992.30
2018-01-06T21:06:12.876Z,97003.64
2018-01-06T21:08:43.832Z,97007.33
2018-01-06T21:11:14.793Z,97005.16
2018-01-06T21:13:45.794Z,97004.63
2018-01-06T21:16:16.735Z,97010.39
2018-01-06T21:18:47.779Z,97019.91
2018-01-06T21:21:18.732Z,97023.20
2018-01-06T21:23:49.688Z,97033.20
2018-01-06T21:26:20.659Z,97031.36
2018-01-06T21:28:51.659Z,97027.70
2018-01-06T21:31:22.694Z,97028.95
2018-01-06T21:33:53.713Z,97037.23
2018-01-06T21:36:24.650Z,97037.44
2018-01-06T21:38:55.618Z,97041.09
2018-01-06T21:41:26.626Z,97038.37
2018-01-06T21:43:57.637Z,97034.69
2018-01-06T21:46:28.687Z,97044.78
2018-01-06T21:48:59.597Z,97049.73
2018-01-06T21:51:30.614Z,97058.25
2018-01-06T21:54:01.610Z,97064.15
2018-01-06T21:56:32.560Z,97068.78
2018-01-06T21:59:03.698Z,97065.02
2018-01-06T22:01:34.655Z,97069.34
2018-01-06T22:04:05.619Z,97067.80
2018-01-06T22:06:36.581Z,97078.00
2018-01-06T22:09:07.706Z,97074.48
2018-01-06T22:11:38.722Z,97077.62
2018-01-06T22:14:09.734Z,97086.73
2018-01-06T22:16:40.754Z,97086.60
2018-01-06T22:19:11.713Z,97094.83
2018-01-06T22:21:46.298Z,97094.20
2018-01-06T22:24:18.173Z,97103.31
2018-01-06T22:26:49.119Z,97098.86
2018-01-06T22:29:20.071Z,97096.87
2018-01-06T22:31:50.991Z,97094.59
2018-01-06T22:34:21.968Z,97093.01
2018-01-06T22:36:52.955Z,97092.28
2018-01-06T22:39:23.886Z,97097.03
2018-01-06T22:41:54.825Z,97089.26
2018-01-06T22:44:25.803Z,97088.17
2018-01-06T22:46:56.787Z,97085.14
2018-01-06T22:49:27.752Z,97092.78
2018-01-06T22:51:58.703Z,97099.89
2018-01-06T22:54:29.612Z,97106.70
2018-01-06T22:57:00.569Z,97109.72
2018-01-06T22:59:31.503Z,97114.66
2018-01-06T23:02:02.440Z,97112.51
2018-01-06T23:04:33.474Z,97105.84
2018-01-06T23:07:04.435Z,97106.16
2018-01-06T23:09:35.374Z,97107.00
2018-01-06T23:12:06.451Z,97104.90
2018-01-06T23:14:37.436Z,97106.30
2018-01-06T23:17:08.390Z,97105.68
2018-01-06T23:19:39.371Z,97112.98
2018-01-06T23:22:17.387Z,97109.34
2018-01-06T23:24:48.326Z,97113.98
2018-01-06T23:27:19.308Z,97100.17
2018-01-06T23:29:50.265Z,97113.09
2018-01-06T23:32:21.222Z,97116.31
2018-01-06T23:34:52.190Z,97116.71
2018-01-06T23:37:23.104Z,97116.14
2018-01-06T23:39:54.051Z,97111.37
2018-01-06T23:42:25.016Z,97109.32
2018-01-06T23:44:56.007Z,97112.31
2018-01-06T23:47:26.932Z,97114.95
2018-01-06T23:49:57.938Z,97113.95
2018-01-06T23:52:28.887Z,97122.63
2018-01-06T23:54:59.874Z,97122.56
2018-01-06T23:57:30.827Z,97127.19
